Time;durP1;ratioP1;P1;durP2;ratioP2;P2;SDS_P1;SDS_P2;PMS_P1;PMS_P2;Temp;Humidity;BMP_temperature;BMP_pressure;BME280_temperature;BME280_humidity;BME280_pressure;Samples;Min_cycle;Max_cycle;Signal;HPM_P1;HPM_P2
2022/08/16 00:00:07;;;;;;;;;;;27.90;57.30;;;;;;5090194;28;19919;-62
2022/08/16 00:02:32;;;;;;;;;;;28.10;57.00;;;;;;5091336;28;20018;-62
2022/08/16 00:04:58;;;;;;;;;;;28.20;56.40;;;;;;5092662;28;20436;-62
2022/08/16 00:07:23;;;;;;;;;;;28.30;56.00;;;;;;5112976;28;19961;-62
2022/08/16 00:09:49;;;;;;;;;;;28.30;55.70;;;;;;5111410;28;19912;-62
2022/08/16 00:12:14;;;;;;;;;;;28.40;55.60;;;;;;5107757;28;20016;-62
2022/08/16 00:14:39;;;;;;;;;;;28.40;55.50;;;;;;5111081;28;19973;-62
2022/08/16 00:17:05;;;;;;;;;;;28.50;55.50;;;;;;5107493;28;20039;-62
2022/08/16 00:19:31;;;;;;;;;;;28.50;55.20;;;;;;5091878;28;19922;-62
2022/08/16 00:21:57;;;;;;;;;;;28.20;55.70;;;;;;5091108;28;20568;-63
2022/08/16 00:24:22;;;;;;;;;;;27.90;57.30;;;;;;5111129;28;19931;-62
2022/08/16 00:26:47;;;;;;;;;;;27.60;58.40;;;;;;5111017;28;20444;-62
2022/08/16 00:29:13;;;;;;;;;;;27.30;59.60;;;;;;5091424;28;19919;-62
2022/08/16 00:31:39;;;;;;;;;;;26.90;60.40;;;;;;5093679;28;19912;-62
2022/08/16 00:34:04;;;;;;;;;;;26.70;61.20;;;;;;5089587;28;19915;-61
2022/08/16 00:36:30;;;;;;;;;;;26.60;61.60;;;;;;5092068;28;20010;-62
2022/08/16 00:38:56;;;;;;;;;;;26.70;61.50;;;;;;5109819;28;19915;-62
2022/08/16 00:41:21;;;;;;;;;;;26.80;61.20;;;;;;5092339;28;19920;-61
2022/08/16 00:43:47;;;;;;;;;;;26.90;60.90;;;;;;5111875;28;20000;-62
2022/08/16 00:46:21;;;;;;;;;;;27.00;60.80;;;;;;5101356;28;19908;-62
2022/08/16 00:48:47;;;;;;;;;;;27.10;60.50;;;;;;5110362;28;20265;-62
2022/08/16 00:51:13;;;;;;;;;;;27.30;60.10;;;;;;5092743;28;19919;-62
2022/08/16 00:53:39;;;;;;;;;;;27.00;60.50;;;;;;5106806;28;19918;-62
2022/08/16 00:56:07;;;;;;;;;;;27.00;61.00;;;;;;5093184;28;19922;-61
2022/08/16 00:58:33;;;;;;;;;;;27.00;60.80;;;;;;5093254;28;19930;-62
2022/08/16 01:00:59;;;;;;;;;;;27.00;61.10;;;;;;5093143;28;19916;-62
2022/08/16 01:03:25;;;;;;;;;;;27.00;61.70;;;;;;5071935;28;20294;-62
2022/08/16 01:05:50;;;;;;;;;;;27.00;62.10;;;;;;5103324;28;19916;-61
2022/08/16 01:08:16;;;;;;;;;;;26.90;62.40;;;;;;5110086;28;19919;-62
2022/08/16 01:10:42;;;;;;;;;;;27.00;62.40;;;;;;5089191;28;20429;-62
2022/08/16 01:13:09;;;;;;;;;;;27.10;61.90;;;;;;5102284;28;19920;-62
2022/08/16 01:15:35;;;;;;;;;;;27.20;62.00;;;;;;5080494;28;20269;-62
2022/08/16 01:18:01;;;;;;;;;;;27.30;61.60;;;;;;5056491;28;19912;-62
2022/08/16 01:20:26;;;;;;;;;;;27.50;60.90;;;;;;5072105;28;19924;-62
2022/08/16 01:22:56;;;;;;;;;;;27.70;60.30;;;;;;5071253;28;19916;-62
2022/08/16 01:25:26;;;;;;;;;;;27.90;59.50;;;;;;5071399;28;19920;-62
2022/08/16 01:27:53;;;;;;;;;;;28.10;58.70;;;;;;5069646;28;19920;-62
2022/08/16 01:30:22;;;;;;;;;;;28.30;58.10;;;;;;5072691;28;19912;-62
2022/08/16 01:32:48;;;;;;;;;;;28.40;57.90;;;;;;5088983;28;20048;-62
2022/08/16 01:35:15;;;;;;;;;;;28.50;58.00;;;;;;5071948;28;20007;-62
2022/08/16 01:37:41;;;;;;;;;;;28.30;58.40;;;;;;5072095;28;19920;-62
2022/08/16 01:40:07;;;;;;;;;;;28.30;58.60;;;;;;5090598;28;19970;-62
2022/08/16 01:42:33;;;;;;;;;;;28.20;58.70;;;;;;5088768;28;19912;-62
2022/08/16 01:44:58;;;;;;;;;;;28.20;58.90;;;;;;5069074;28;20383;-62
2022/08/16 01:47:24;;;;;;;;;;;28.10;58.80;;;;;;5088601;28;20022;-62
2022/08/16 01:49:49;;;;;;;;;;;28.10;59.00;;;;;;5070876;28;19912;-63
2022/08/16 01:52:15;;;;;;;;;;;28.00;59.20;;;;;;5086439;28;20442;-62
2022/08/16 01:54:40;;;;;;;;;;;27.90;59.60;;;;;;5088948;28;20284;-62
2022/08/16 01:57:06;;;;;;;;;;;27.80;59.70;;;;;;5091160;28;20391;-62
2022/08/16 01:59:31;;;;;;;;;;;27.80;59.70;;;;;;5070617;28;20315;-62
2022/08/16 02:01:57;;;;;;;;;;;27.70;60.40;;;;;;5085368;28;19920;-62
2022/08/16 02:04:23;;;;;;;;;;;27.60;60.50;;;;;;5065752;28;19919;-62
2022/08/16 02:06:48;;;;;;;;;;;27.40;60.80;;;;;;5071690;28;19916;-62
2022/08/16 02:09:14;;;;;;;;;;;27.30;61.20;;;;;;5070649;28;19916;-62
2022/08/16 02:11:40;;;;;;;;;;;27.50;60.90;;;;;;5072069;28;20004;-62
2022/08/16 02:14:06;;;;;;;;;;;27.80;59.90;;;;;;5104890;28;19920;-62
2022/08/16 02:16:31;;;;;;;;;;;28.00;59.00;;;;;;5107715;28;19916;-62
2022/08/16 02:18:58;;;;;;;;;;;28.10;58.70;;;;;;5090528;28;19962;-62
2022/08/16 02:21:23;;;;;;;;;;;28.10;58.80;;;;;;5110487;28;19919;-62
2022/08/16 02:23:49;;;;;;;;;;;28.20;58.60;;;;;;5091385;28;19916;-62
2022/08/16 02:26:14;;;;;;;;;;;28.30;58.20;;;;;;5110899;28;20006;-62
2022/08/16 02:28:40;;;;;;;;;;;28.50;58.00;;;;;;5088773;28;19915;-62
2022/08/16 02:31:07;;;;;;;;;;;28.50;57.60;;;;;;5109828;28;19998;-62
2022/08/16 02:33:33;;;;;;;;;;;28.60;57.30;;;;;;5088776;28;19920;-62
2022/08/16 02:35:58;;;;;;;;;;;28.70;57.20;;;;;;5104264;28;19980;-62
2022/08/16 02:38:24;;;;;;;;;;;28.80;56.80;;;;;;5110743;28;19926;-62
2022/08/16 02:40:50;;;;;;;;;;;28.90;56.90;;;;;;5092325;28;19965;-62
2022/08/16 02:43:15;;;;;;;;;;;28.80;56.90;;;;;;5091017;28;20938;-62
2022/08/16 02:45:41;;;;;;;;;;;28.70;56.80;;;;;;5107139;28;19923;-62
2022/08/16 02:48:07;;;;;;;;;;;28.80;56.90;;;;;;5093808;28;19928;-62
2022/08/16 02:50:33;;;;;;;;;;;28.80;56.60;;;;;;5111945;28;19941;-62
2022/08/16 02:52:58;;;;;;;;;;;28.80;57.00;;;;;;5092048;28;20373;-62
2022/08/16 02:55:24;;;;;;;;;;;28.70;57.00;;;;;;5113554;28;19915;-62
2022/08/16 02:57:50;;;;;;;;;;;28.60;57.20;;;;;;5113447;28;20371;-62
2022/08/16 03:00:16;;;;;;;;;;;28.50;57.70;;;;;;5114112;28;19922;-62
2022/08/16 03:02:41;;;;;;;;;;;28.40;57.70;;;;;;5095097;28;19912;-62
2022/08/16 03:05:08;;;;;;;;;;;28.40;58.10;;;;;;5113817;28;20360;-62
2022/08/16 03:07:33;;;;;;;;;;;28.30;58.60;;;;;;5095050;28;20286;-62
2022/08/16 03:09:59;;;;;;;;;;;27.90;59.30;;;;;;5109486;28;20010;-62
2022/08/16 03:12:25;;;;;;;;;;;27.70;60.30;;;;;;5111967;28;19937;-62
2022/08/16 03:14:50;;;;;;;;;;;27.50;60.90;;;;;;5074984;28;19955;-61
2022/08/16 03:17:16;;;;;;;;;;;27.30;61.60;;;;;;5092346;28;19915;-62
2022/08/16 03:19:42;;;;;;;;;;;27.40;61.00;;;;;;5087626;28;19923;-62
2022/08/16 03:22:07;;;;;;;;;;;27.70;60.70;;;;;;5075922;28;19909;-62
2022/08/16 03:24:33;;;;;;;;;;;27.70;60.50;;;;;;5073807;28;19934;-62
2022/08/16 03:26:58;;;;;;;;;;;27.60;60.70;;;;;;5062874;28;19908;-62
2022/08/16 03:29:26;;;;;;;;;;;27.50;60.90;;;;;;5071701;28;19969;-62
2022/08/16 03:31:51;;;;;;;;;;;27.50;60.90;;;;;;5091609;28;19981;-62
2022/08/16 03:34:17;;;;;;;;;;;27.30;60.90;;;;;;5057594;28;19959;-62
2022/08/16 03:36:42;;;;;;;;;;;27.30;60.80;;;;;;5054223;28;19916;-62
2022/08/16 03:39:08;;;;;;;;;;;27.50;60.90;;;;;;5070087;28;19935;-62
2022/08/16 03:41:33;;;;;;;;;;;27.60;60.10;;;;;;5071428;28;19939;-62
2022/08/16 03:43:59;;;;;;;;;;;27.80;59.50;;;;;;5067578;28;19916;-62
2022/08/16 03:46:24;;;;;;;;;;;27.90;59.00;;;;;;5088106;28;19912;-62
2022/08/16 03:48:50;;;;;;;;;;;28.00;58.70;;;;;;5065415;28;19995;-62
2022/08/16 03:51:15;;;;;;;;;;;28.10;58.50;;;;;;5092857;28;19908;-62
2022/08/16 03:53:41;;;;;;;;;;;28.10;58.50;;;;;;5063370;28;19912;-62
2022/08/16 03:56:06;;;;;;;;;;;27.90;59.70;;;;;;5074547;28;19916;-62
2022/08/16 03:58:32;;;;;;;;;;;27.80;59.10;;;;;;5063468;28;19961;-62
2022/08/16 04:00:58;;;;;;;;;;;27.90;58.90;;;;;;5054334;28;19920;-62
2022/08/16 04:03:23;;;;;;;;;;;28.00;58.40;;;;;;5072740;28;19920;-62
2022/08/16 04:05:50;;;;;;;;;;;28.20;58.30;;;;;;5072392;28;19935;-62
2022/08/16 04:08:17;;;;;;;;;;;28.30;58.00;;;;;;5090994;28;19912;-62
2022/08/16 04:10:43;;;;;;;;;;;28.30;57.50;;;;;;5072087;28;19908;-62
2022/08/16 04:13:08;;;;;;;;;;;28.30;57.40;;;;;;5096262;28;19924;-62
2022/08/16 04:15:34;;;;;;;;;;;28.50;57.40;;;;;;5112853;28;20298;-62
2022/08/16 04:18:00;;;;;;;;;;;28.50;57.70;;;;;;5099280;28;20380;-62
2022/08/16 04:20:26;;;;;;;;;;;28.40;57.20;;;;;;5076736;28;19916;-62
2022/08/16 04:22:51;;;;;;;;;;;28.50;57.20;;;;;;5093637;28;19918;-62
2022/08/16 04:25:17;;;;;;;;;;;28.50;57.10;;;;;;5074863;28;20390;-62
2022/08/16 04:27:42;;;;;;;;;;;28.30;57.20;;;;;;5103186;28;19916;-62
2022/08/16 04:30:12;;;;;;;;;;;28.20;57.70;;;;;;5093598;28;20291;-62
2022/08/16 04:32:37;;;;;;;;;;;28.10;57.80;;;;;;5110530;28;20394;-62
2022/08/16 04:35:04;;;;;;;;;;;28.10;57.90;;;;;;5108057;28;19912;-62
2022/08/16 04:37:29;;;;;;;;;;;28.00;58.10;;;;;;5110477;28;19915;-62
2022/08/16 04:39:55;;;;;;;;;;;27.70;58.80;;;;;;5108401;28;19916;-62
2022/08/16 04:42:20;;;;;;;;;;;27.30;60.00;;;;;;5112328;28;19912;-62
2022/08/16 04:44:46;;;;;;;;;;;26.90;61.00;;;;;;5093653;28;20375;-62
2022/08/16 04:47:11;;;;;;;;;;;26.70;62.80;;;;;;5094211;28;19998;-62
2022/08/16 04:49:37;;;;;;;;;;;26.70;62.20;;;;;;5111626;28;19912;-62
2022/08/16 04:52:02;;;;;;;;;;;26.80;61.90;;;;;;5109068;28;19927;-62
2022/08/16 04:54:28;;;;;;;;;;;27.00;61.10;;;;;;5089613;28;19912;-62
2022/08/16 04:56:53;;;;;;;;;;;26.90;61.40;;;;;;5111282;28;20036;-62
2022/08/16 04:59:19;;;;;;;;;;;26.70;61.90;;;;;;5092572;28;19927;-62
2022/08/16 05:01:44;;;;;;;;;;;26.70;62.40;;;;;;5092718;28;19923;-62
2022/08/16 05:04:09;;;;;;;;;;;26.70;62.10;;;;;;5104718;28;20522;-62
2022/08/16 05:06:35;;;;;;;;;;;26.90;61.60;;;;;;5111182;28;20007;-62
2022/08/16 05:09:00;;;;;;;;;;;26.80;61.60;;;;;;5105615;28;19938;-62
2022/08/16 05:11:27;;;;;;;;;;;26.70;62.20;;;;;;5106851;28;19957;-62
2022/08/16 05:13:53;;;;;;;;;;;26.50;62.50;;;;;;5094351;28;19932;-62
2022/08/16 05:16:26;;;;;;;;;;;26.40;63.20;;;;;;5090745;28;19919;-62
2022/08/16 05:18:52;;;;;;;;;;;26.20;63.80;;;;;;5061216;28;19912;-62
2022/08/16 05:21:18;;;;;;;;;;;26.20;63.80;;;;;;5072149;28;20264;-62
2022/08/16 05:23:44;;;;;;;;;;;26.50;63.00;;;;;;5072009;28;20052;-62
2022/08/16 05:26:09;;;;;;;;;;;26.50;62.90;;;;;;5084851;28;19912;-62
2022/08/16 05:28:35;;;;;;;;;;;26.50;62.70;;;;;;5082298;28;19916;-62
2022/08/16 05:31:00;;;;;;;;;;;26.60;62.40;;;;;;5091016;28;19912;-62
2022/08/16 05:33:26;;;;;;;;;;;26.80;61.90;;;;;;5070264;28;20008;-62
2022/08/16 05:35:51;;;;;;;;;;;27.00;61.40;;;;;;5087103;28;19951;-61
2022/08/16 05:38:17;;;;;;;;;;;27.10;61.30;;;;;;5086963;28;19916;-62
2022/08/16 05:40:42;;;;;;;;;;;26.90;61.90;;;;;;5083421;28;20026;-62
2022/08/16 05:43:08;;;;;;;;;;;26.60;62.60;;;;;;5068146;28;20028;-62
2022/08/16 05:45:33;;;;;;;;;;;26.70;62.90;;;;;;5055067;28;20033;-62
2022/08/16 05:47:59;;;;;;;;;;;26.70;62.50;;;;;;5087217;28;20448;-62
2022/08/16 05:50:24;;;;;;;;;;;26.90;62.20;;;;;;5091574;28;20333;-62
2022/08/16 05:52:50;;;;;;;;;;;26.90;62.00;;;;;;5091915;28;19909;-62
2022/08/16 05:55:15;;;;;;;;;;;27.00;61.80;;;;;;5090077;28;20012;-62
2022/08/16 05:57:41;;;;;;;;;;;27.10;61.50;;;;;;5067765;28;19920;-62
2022/08/16 06:00:08;;;;;;;;;;;27.10;61.70;;;;;;5068638;28;19964;-62
2022/08/16 06:02:34;;;;;;;;;;;27.10;61.60;;;;;;5073890;28;20387;-62
2022/08/16 06:05:00;;;;;;;;;;;27.20;61.20;;;;;;5063198;28;19994;-62
2022/08/16 06:07:25;;;;;;;;;;;27.30;61.00;;;;;;5084014;28;19908;-62
2022/08/16 06:09:51;;;;;;;;;;;27.40;60.80;;;;;;5087657;28;20456;-62
2022/08/16 06:12:17;;;;;;;;;;;27.40;60.70;;;;;;5090802;28;19919;-62
2022/08/16 06:14:42;;;;;;;;;;;27.30;60.60;;;;;;5092819;28;19924;-62
2022/08/16 06:17:08;;;;;;;;;;;27.20;60.70;;;;;;5111191;28;20386;-62
2022/08/16 06:19:33;;;;;;;;;;;27.00;60.50;;;;;;5109855;28;19928;-62
2022/08/16 06:21:59;;;;;;;;;;;26.90;60.90;;;;;;5095291;28;19977;-62
2022/08/16 06:24:24;;;;;;;;;;;26.80;61.10;;;;;;5105124;28;19920;-62
2022/08/16 06:26:50;;;;;;;;;;;26.70;61.10;;;;;;5090374;28;19912;-62
2022/08/16 06:29:15;;;;;;;;;;;26.70;61.70;;;;;;5108815;28;19912;-62
2022/08/16 06:31:40;;;;;;;;;;;26.70;61.30;;;;;;5115428;28;19907;-62
2022/08/16 06:34:06;;;;;;;;;;;26.70;61.40;;;;;;5092222;28;20390;-61
2022/08/16 06:36:32;;;;;;;;;;;26.70;61.50;;;;;;5093476;28;20043;-61
2022/08/16 06:38:58;;;;;;;;;;;26.70;61.50;;;;;;5089743;28;19916;-61
2022/08/16 06:41:24;;;;;;;;;;;26.60;61.50;;;;;;5085355;28;20347;-61
2022/08/16 06:43:49;;;;;;;;;;;26.60;61.60;;;;;;5091321;28;19964;-61
2022/08/16 06:46:28;;;;;;;;;;;26.60;61.80;;;;;;5109996;28;19919;-61
2022/08/16 06:48:53;;;;;;;;;;;26.60;61.60;;;;;;5113562;28;19942;-61
2022/08/16 06:51:19;;;;;;;;;;;26.70;61.50;;;;;;5093832;28;19916;-60
2022/08/16 06:53:44;;;;;;;;;;;26.80;61.10;;;;;;5108398;28;19922;-61
2022/08/16 06:56:10;;;;;;;;;;;26.90;60.40;;;;;;5113569;28;19911;-60
2022/08/16 06:58:35;;;;;;;;;;;27.00;60.50;;;;;;5112349;28;19919;-61
2022/08/16 07:01:01;;;;;;;;;;;27.10;60.00;;;;;;5108840;28;19960;-61
2022/08/16 07:03:29;;;;;;;;;;;27.10;59.90;;;;;;5090536;28;19912;-61
2022/08/16 07:05:55;;;;;;;;;;;27.00;60.10;;;;;;5091384;28;19943;-61
2022/08/16 07:08:22;;;;;;;;;;;27.10;60.00;;;;;;5094966;28;19911;-61
2022/08/16 07:10:48;;;;;;;;;;;27.20;59.60;;;;;;5069271;28;19940;-62
2022/08/16 07:13:13;;;;;;;;;;;27.30;59.60;;;;;;5097864;28;20014;-62
2022/08/16 07:15:40;;;;;;;;;;;27.30;59.60;;;;;;5091625;28;19920;-61
2022/08/16 07:18:05;;;;;;;;;;;27.30;59.60;;;;;;5083616;28;19924;-61
2022/08/16 07:20:31;;;;;;;;;;;27.20;60.00;;;;;;5091677;28;19924;-63
2022/08/16 07:22:56;;;;;;;;;;;27.00;60.10;;;;;;5068201;28;19923;-61
2022/08/16 07:25:22;;;;;;;;;;;26.90;60.30;;;;;;5092557;28;19912;-63
2022/08/16 07:27:48;;;;;;;;;;;26.80;60.80;;;;;;5084240;28;20379;-62
2022/08/16 07:30:14;;;;;;;;;;;26.80;60.70;;;;;;5073158;28;19967;-61
2022/08/16 07:32:39;;;;;;;;;;;26.80;60.80;;;;;;5074957;28;19951;-62
2022/08/16 07:35:05;;;;;;;;;;;26.70;60.30;;;;;;5070317;28;20337;-62
2022/08/16 07:37:30;;;;;;;;;;;26.70;60.30;;;;;;5089499;28;19916;-62
2022/08/16 07:39:56;;;;;;;;;;;26.80;60.30;;;;;;5070821;28;19916;-62
2022/08/16 07:42:21;;;;;;;;;;;26.70;60.30;;;;;;5090898;28;19912;-63
2022/08/16 07:44:47;;;;;;;;;;;26.60;60.20;;;;;;5086922;28;19966;-62
2022/08/16 07:47:13;;;;;;;;;;;26.70;60.30;;;;;;5085140;28;19920;-63
2022/08/16 07:49:38;;;;;;;;;;;26.80;60.30;;;;;;5092837;28;20010;-62
2022/08/16 07:52:04;;;;;;;;;;;26.90;59.80;;;;;;5074003;28;20340;-61
2022/08/16 07:54:29;;;;;;;;;;;26.90;59.40;;;;;;5090685;28;19916;-62
2022/08/16 07:56:55;;;;;;;;;;;27.00;59.10;;;;;;5069356;28;19912;-62
2022/08/16 07:59:20;;;;;;;;;;;27.10;58.90;;;;;;5069506;28;19980;-62
2022/08/16 08:01:46;;;;;;;;;;;27.20;58.50;;;;;;5088203;28;20093;-62
2022/08/16 08:04:12;;;;;;;;;;;27.20;58.50;;;;;;5089727;28;19912;-63
2022/08/16 08:06:38;;;;;;;;;;;27.20;58.30;;;;;;5069994;28;19912;-62
2022/08/16 08:09:03;;;;;;;;;;;27.20;58.10;;;;;;5087824;28;19942;-62
2022/08/16 08:11:29;;;;;;;;;;;27.20;57.90;;;;;;5068533;28;19916;-62
2022/08/16 08:13:55;;;;;;;;;;;27.30;57.70;;;;;;5084624;28;19992;-62
2022/08/16 08:16:21;;;;;;;;;;;27.30;57.40;;;;;;5105729;28;19912;-62
2022/08/16 08:18:47;;;;;;;;;;;27.30;57.40;;;;;;5093721;28;19911;-62
2022/08/16 08:21:12;;;;;;;;;;;27.20;57.70;;;;;;5093972;28;20011;-62
2022/08/16 08:23:38;;;;;;;;;;;27.20;57.90;;;;;;5086068;28;19919;-63
2022/08/16 08:26:03;;;;;;;;;;;27.30;57.60;;;;;;5092052;28;19915;-63
2022/08/16 08:28:30;;;;;;;;;;;27.30;57.40;;;;;;5090709;28;19922;-63
2022/08/16 08:30:57;;;;;;;;;;;27.30;57.30;;;;;;5094058;28;19919;-62
2022/08/16 08:33:22;;;;;;;;;;;27.40;56.70;;;;;;5112925;28;19953;-62
2022/08/16 08:35:48;;;;;;;;;;;27.30;57.00;;;;;;5109629;28;20423;-62
2022/08/16 08:38:15;;;;;;;;;;;27.30;57.10;;;;;;5109195;28;20367;-61
2022/08/16 08:40:41;;;;;;;;;;;27.30;57.20;;;;;;5108501;28;19916;-62
2022/08/16 08:43:11;;;;;;;;;;;27.20;57.30;;;;;;5087416;28;20015;-62
2022/08/16 08:45:37;;;;;;;;;;;27.20;57.10;;;;;;5097515;28;19912;-62
2022/08/16 08:48:03;;;;;;;;;;;27.20;57.00;;;;;;5090999;28;20391;-63
2022/08/16 08:50:29;;;;;;;;;;;27.30;56.90;;;;;;5109054;28;19912;-62
2022/08/16 08:52:55;;;;;;;;;;;27.40;56.90;;;;;;5108534;28;19916;-62
2022/08/16 08:55:21;;;;;;;;;;;27.40;56.90;;;;;;5089164;28;20390;-61
2022/08/16 08:57:47;;;;;;;;;;;27.40;56.70;;;;;;5093679;28;19931;-61
2022/08/16 09:00:13;;;;;;;;;;;27.40;56.60;;;;;;5107525;28;19962;-62
2022/08/16 09:02:38;;;;;;;;;;;27.50;55.90;;;;;;5108641;28;19919;-61
2022/08/16 09:05:04;;;;;;;;;;;27.50;56.20;;;;;;5109380;28;19916;-61
2022/08/16 09:07:30;;;;;;;;;;;27.30;56.60;;;;;;5092114;28;19963;-62
2022/08/16 09:09:55;;;;;;;;;;;27.30;56.70;;;;;;5110718;28;19947;-62
2022/08/16 09:12:22;;;;;;;;;;;27.40;56.20;;;;;;5110318;28;19960;-62
2022/08/16 09:14:47;;;;;;;;;;;27.30;56.10;;;;;;5115749;27;19924;-62
2022/08/16 09:17:13;;;;;;;;;;;27.60;56.00;;;;;;5084843;28;20283;-62
2022/08/16 09:19:39;;;;;;;;;;;27.60;56.30;;;;;;5089408;28;19916;-63
2022/08/16 09:22:05;;;;;;;;;;;27.50;56.50;;;;;;5092311;28;20385;-62
2022/08/16 09:24:31;;;;;;;;;;;27.50;56.10;;;;;;5109849;28;19912;-62
2022/08/16 09:26:56;;;;;;;;;;;27.50;56.10;;;;;;5090955;28;20470;-62
2022/08/16 09:29:21;;;;;;;;;;;27.50;56.20;;;;;;5110314;28;19912;-62
2022/08/16 09:31:47;;;;;;;;;;;27.60;56.00;;;;;;5110808;28;19916;-62
2022/08/16 09:34:13;;;;;;;;;;;27.60;55.80;;;;;;5098781;28;20357;-62
2022/08/16 09:36:38;;;;;;;;;;;27.60;56.00;;;;;;5111019;28;19916;-62
2022/08/16 09:39:04;;;;;;;;;;;27.70;55.80;;;;;;5108023;28;20329;-62
2022/08/16 09:41:30;;;;;;;;;;;27.70;55.60;;;;;;5109514;28;19963;-62
2022/08/16 09:43:56;;;;;;;;;;;27.70;55.60;;;;;;5103113;28;19922;-63
2022/08/16 09:46:22;;;;;;;;;;;27.70;55.00;;;;;;5091994;28;19912;-62
2022/08/16 09:48:48;;;;;;;;;;;27.70;55.40;;;;;;5091976;28;19936;-60
2022/08/16 09:51:13;;;;;;;;;;;27.70;55.20;;;;;;5111098;28;19922;-68
2022/08/16 09:53:39;;;;;;;;;;;27.80;54.30;;;;;;5090713;28;19915;-63
2022/08/16 09:56:09;;;;;;;;;;;27.80;54.10;;;;;;5095981;28;19916;-63
2022/08/16 09:58:34;;;;;;;;;;;27.90;54.20;;;;;;5065650;28;19916;-63
2022/08/16 10:01:00;;;;;;;;;;;27.90;54.30;;;;;;5112426;28;19924;-60
2022/08/16 10:03:25;;;;;;;;;;;27.90;54.30;;;;;;5111581;28;19966;-62
2022/08/16 10:05:50;;;;;;;;;;;27.90;54.10;;;;;;5112884;28;19922;-62
2022/08/16 10:08:16;;;;;;;;;;;27.90;53.70;;;;;;5113975;28;19962;-64
2022/08/16 10:13:10;;;;;;;;;;;27.90;53.70;;;;;;5095490;28;19949;-61
2022/08/16 10:13:27;;;;;;;;;;;27.90;53.30;;;;;;5109138;28;19919;-61
2022/08/16 10:15:53;;;;;;;;;;;27.90;52.80;;;;;;5114948;28;20371;-61
2022/08/16 10:18:19;;;;;;;;;;;27.90;52.90;;;;;;5109115;28;20002;-62
2022/08/16 10:20:46;;;;;;;;;;;27.90;53.20;;;;;;5113364;28;19924;-62
2022/08/16 10:23:12;;;;;;;;;;;28.10;52.70;;;;;;5093749;28;19919;-61
2022/08/16 10:25:39;;;;;;;;;;;28.10;52.80;;;;;;5115657;28;20280;-61
2022/08/16 10:28:05;;;;;;;;;;;28.20;52.90;;;;;;5112519;28;19923;-62
2022/08/16 10:30:30;;;;;;;;;;;28.20;52.50;;;;;;5095489;28;19911;-62
2022/08/16 10:32:56;;;;;;;;;;;28.10;52.60;;;;;;5092783;28;19919;-62
2022/08/16 10:35:22;;;;;;;;;;;28.10;53.00;;;;;;5113370;28;20003;-62
2022/08/16 10:37:47;;;;;;;;;;;28.10;52.30;;;;;;5095914;28;19912;-62
2022/08/16 10:40:13;;;;;;;;;;;28.10;52.50;;;;;;5093005;28;19920;-62
2022/08/16 10:42:38;;;;;;;;;;;28.00;52.30;;;;;;5114699;28;19912;-61
2022/08/16 10:45:04;;;;;;;;;;;28.00;52.00;;;;;;5113586;28;20426;-61
2022/08/16 10:47:29;;;;;;;;;;;28.00;52.00;;;;;;5113433;28;20298;-62
2022/08/16 10:49:55;;;;;;;;;;;28.00;51.30;;;;;;5113900;28;19918;-62
2022/08/16 10:52:21;;;;;;;;;;;28.10;52.00;;;;;;5110016;28;19920;-62
2022/08/16 10:54:47;;;;;;;;;;;28.10;52.20;;;;;;5108682;28;19911;-63
2022/08/16 10:57:13;;;;;;;;;;;28.20;52.30;;;;;;5110117;28;19920;-62
2022/08/16 10:59:40;;;;;;;;;;;28.20;52.40;;;;;;5112050;28;19915;-62
2022/08/16 11:02:06;;;;;;;;;;;28.30;52.50;;;;;;5112210;28;19959;-62
2022/08/16 11:04:31;;;;;;;;;;;28.40;52.70;;;;;;5094209;28;19942;-60
2022/08/16 11:06:57;;;;;;;;;;;28.30;52.80;;;;;;5106155;28;19936;-62
2022/08/16 11:09:22;;;;;;;;;;;28.30;53.00;;;;;;5105240;28;19912;-61
2022/08/16 11:11:47;;;;;;;;;;;28.30;53.00;;;;;;5104030;27;19955;-62
2022/08/16 11:14:13;;;;;;;;;;;28.30;53.20;;;;;;5092123;28;19924;-63
2022/08/16 11:16:38;;;;;;;;;;;28.40;53.20;;;;;;5082889;28;19927;-62
2022/08/16 11:19:05;;;;;;;;;;;28.30;53.00;;;;;;5093064;28;19923;-63
2022/08/16 11:21:30;;;;;;;;;;;28.30;53.20;;;;;;5071135;28;20065;-63
2022/08/16 11:23:56;;;;;;;;;;;28.40;53.20;;;;;;5090948;28;19956;-61
2022/08/16 11:26:22;;;;;;;;;;;28.40;54.70;;;;;;5090039;28;19962;-63
2022/08/16 11:28:49;;;;;;;;;;;28.30;54.90;;;;;;5089182;28;19912;-63
2022/08/16 11:31:15;;;;;;;;;;;28.30;54.60;;;;;;5071522;28;19936;-65
2022/08/16 11:33:41;;;;;;;;;;;28.30;54.40;;;;;;5093593;28;19908;-61
2022/08/16 11:36:06;;;;;;;;;;;28.20;54.10;;;;;;5090831;28;19923;-62
2022/08/16 11:38:32;;;;;;;;;;;28.30;53.70;;;;;;5074207;28;19919;-62
2022/08/16 11:40:57;;;;;;;;;;;28.20;53.60;;;;;;5072905;28;19920;-61
2022/08/16 11:43:24;;;;;;;;;;;28.20;53.50;;;;;;5053761;28;19920;-61
2022/08/16 11:45:49;;;;;;;;;;;28.30;53.00;;;;;;5069123;28;19920;-61
2022/08/16 11:48:15;;;;;;;;;;;28.30;52.60;;;;;;5072575;28;19919;-61
2022/08/16 11:50:42;;;;;;;;;;;28.30;52.80;;;;;;5091611;28;19912;-61
2022/08/16 11:53:07;;;;;;;;;;;28.20;53.00;;;;;;5090316;28;19969;-61
2022/08/16 11:55:33;;;;;;;;;;;28.20;53.40;;;;;;5071290;28;19920;-61
2022/08/16 11:57:59;;;;;;;;;;;28.10;53.60;;;;;;5073504;28;20272;-61
2022/08/16 12:00:24;;;;;;;;;;;28.10;55.50;;;;;;5069873;28;19924;-61
2022/08/16 12:02:50;;;;;;;;;;;27.90;55.70;;;;;;5092205;28;19916;-62
2022/08/16 12:05:16;;;;;;;;;;;28.00;56.20;;;;;;5071508;28;19912;-62
2022/08/16 12:07:41;;;;;;;;;;;28.00;56.40;;;;;;5072599;28;20364;-62
2022/08/16 12:10:08;;;;;;;;;;;28.30;56.00;;;;;;5090822;28;19924;-62
2022/08/16 12:12:33;;;;;;;;;;;28.40;56.00;;;;;;5094964;28;19915;-62
2022/08/16 12:14:59;;;;;;;;;;;28.50;55.80;;;;;;5108622;28;20402;-62
2022/08/16 12:17:25;;;;;;;;;;;28.60;56.20;;;;;;5108002;28;19998;-61
2022/08/16 12:19:50;;;;;;;;;;;28.60;56.40;;;;;;5111168;28;20338;-62
2022/08/16 12:22:17;;;;;;;;;;;28.60;56.30;;;;;;5088798;28;21284;-61
2022/08/16 12:24:43;;;;;;;;;;;28.60;56.10;;;;;;5104427;28;19915;-61
2022/08/16 12:27:08;;;;;;;;;;;28.70;55.80;;;;;;5112172;28;19915;-63
2022/08/16 12:29:34;;;;;;;;;;;28.70;55.70;;;;;;5093483;28;19961;-62
2022/08/16 12:31:59;;;;;;;;;;;28.80;54.80;;;;;;5112636;28;19918;-62
2022/08/16 12:34:25;;;;;;;;;;;28.90;55.10;;;;;;5111211;28;19947;-62
2022/08/16 12:36:50;;;;;;;;;;;29.00;54.90;;;;;;5109326;28;20017;-63
2022/08/16 12:39:19;;;;;;;;;;;29.00;54.80;;;;;;5108736;28;20478;-61
2022/08/16 12:41:45;;;;;;;;;;;29.10;54.60;;;;;;5110542;28;19931;-62
2022/08/16 12:44:11;;;;;;;;;;;29.10;54.40;;;;;;5112785;28;19912;-62
2022/08/16 12:46:37;;;;;;;;;;;29.20;54.00;;;;;;5108080;28;19912;-62
2022/08/16 12:49:04;;;;;;;;;;;29.30;53.50;;;;;;5110495;28;20260;-61
2022/08/16 12:51:31;;;;;;;;;;;29.30;53.20;;;;;;5108906;28;20303;-62
2022/08/16 12:53:57;;;;;;;;;;;29.30;52.00;;;;;;5107942;28;19915;-62
2022/08/16 12:56:24;;;;;;;;;;;29.20;51.70;;;;;;5085400;28;19919;-62
2022/08/16 12:58:50;;;;;;;;;;;29.10;52.60;;;;;;5105480;28;19916;-62
2022/08/16 13:01:16;;;;;;;;;;;29.10;51.80;;;;;;5093351;28;19923;-61
2022/08/16 13:03:44;;;;;;;;;;;29.10;51.80;;;;;;5110698;28;19911;-62
2022/08/16 13:06:09;;;;;;;;;;;29.00;52.20;;;;;;5091153;28;19916;-66
2022/08/16 13:08:35;;;;;;;;;;;28.90;52.50;;;;;;5092471;28;19923;-62
2022/08/16 13:11:01;;;;;;;;;;;28.90;52.70;;;;;;5106073;28;19912;-62
2022/08/16 13:13:26;;;;;;;;;;;28.80;52.90;;;;;;5108846;28;19923;-61
2022/08/16 13:15:56;;;;;;;;;;;28.80;52.80;;;;;;5108933;28;19934;-62
2022/08/16 13:18:21;;;;;;;;;;;28.80;53.00;;;;;;5092309;28;19919;-62
2022/08/16 13:20:47;;;;;;;;;;;28.80;53.20;;;;;;5111234;28;19924;-62
2022/08/16 13:23:13;;;;;;;;;;;28.80;53.30;;;;;;5090436;28;19933;-63
2022/08/16 13:25:39;;;;;;;;;;;28.90;53.50;;;;;;5109812;28;19912;-63
2022/08/16 13:28:05;;;;;;;;;;;29.00;52.90;;;;;;5091722;28;19927;-63
2022/08/16 13:30:32;;;;;;;;;;;29.10;52.90;;;;;;5091114;28;19998;-61
2022/08/16 13:32:57;;;;;;;;;;;29.10;52.50;;;;;;5092469;28;20363;-62
2022/08/16 13:35:23;;;;;;;;;;;29.10;52.60;;;;;;5104983;28;19916;-62
2022/08/16 13:37:48;;;;;;;;;;;29.10;52.60;;;;;;5091011;28;20380;-62
2022/08/16 13:40:14;;;;;;;;;;;29.20;52.70;;;;;;5111331;28;20690;-62
2022/08/16 13:42:39;;;;;;;;;;;29.10;52.90;;;;;;5073593;28;20341;-62
2022/08/16 13:45:08;;;;;;;;;;;29.10;52.80;;;;;;5110445;28;20316;-62
2022/08/16 13:47:33;;;;;;;;;;;29.10;52.80;;;;;;5107590;28;19959;-61
2022/08/16 13:49:59;;;;;;;;;;;29.10;52.80;;;;;;5109841;28;19943;-62
2022/08/16 13:52:24;;;;;;;;;;;29.10;52.50;;;;;;5092034;28;19916;-62
2022/08/16 13:54:50;;;;;;;;;;;29.10;52.60;;;;;;5090574;28;20276;-62
2022/08/16 13:57:15;;;;;;;;;;;29.10;52.30;;;;;;5110871;28;19907;-61
2022/08/16 13:59:42;;;;;;;;;;;29.20;51.60;;;;;;5090378;28;19915;-61
2022/08/16 14:02:07;;;;;;;;;;;29.30;51.30;;;;;;5107622;28;20072;-63
2022/08/16 14:04:34;;;;;;;;;;;29.30;51.10;;;;;;5086316;28;19998;-63
2022/08/16 14:07:00;;;;;;;;;;;29.30;50.30;;;;;;5091004;28;19912;-62